CCA9683 ZBAA-ZGSZ
Flight info
| Callsign | CCA9683 |
|---|---|
| Flight time | N/A |
| Altitude | 38100 |
| Route | RUSDO W45 IPLEV B458 DADGA W37 OMBEB R473 NOLON W90 POU W7 SAREX |
| Aircraft | B77W/H-SDE1E2E3FGHIJ2J3J4J5M1RWXY/LB1D1 |
Departure
| Time | N/A |
|---|---|
| Airport | Beijing Capital International Airport (ZBAA) |
Arrival
| Time | 2026-04-23 08:20 |
|---|---|
| Airport | Shenzhen Bao'an International Airport (ZGSZ) |
| Time | Latitude | Longitude | Altitude | Speed | Heading |
|---|---|---|---|---|---|
| 2026-04-23 07:47 | 25.22434 | 114.23540 | 34054 ft | 531 kts | 173° |
| 2026-04-23 07:48 | 25.19169 | 114.24498 | 34052 ft | 531 kts | 173° |
| 2026-04-23 07:48 | 25.12120 | 114.26327 | 34051 ft | 520 kts | 181° |
| 2026-04-23 07:49 | 25.05160 | 114.26279 | 34043 ft | 500 kts | 197° |
| 2026-04-23 07:49 | 24.98351 | 114.24879 | 34040 ft | 497 kts | 199° |
| 2026-04-23 07:50 | 24.91574 | 114.23413 | 34037 ft | 497 kts | 199° |
| 2026-04-23 07:50 | 24.84727 | 114.21928 | 34043 ft | 498 kts | 199° |
| 2026-04-23 07:51 | 24.77852 | 114.20438 | 34053 ft | 499 kts | 199° |
| 2026-04-23 07:51 | 24.71126 | 114.18979 | 34049 ft | 500 kts | 198° |
| 2026-04-23 07:52 | 24.64257 | 114.17490 | 34039 ft | 501 kts | 198° |
| 2026-04-23 07:52 | 24.57352 | 114.15996 | 34035 ft | 500 kts | 198° |
| 2026-04-23 07:53 | 24.50510 | 114.14516 | 34030 ft | 501 kts | 198° |
| 2026-04-23 07:53 | 24.43599 | 114.13022 | 34031 ft | 501 kts | 198° |
| 2026-04-23 07:54 | 24.36752 | 114.11412 | 34032 ft | 494 kts | 204° |
| 2026-04-23 07:54 | 24.30578 | 114.08257 | 34036 ft | 482 kts | 217° |
| 2026-04-23 07:55 | 24.24824 | 114.04398 | 34033 ft | 480 kts | 218° |
| 2026-04-23 07:55 | 24.19164 | 114.00446 | 34029 ft | 482 kts | 218° |
| 2026-04-23 07:56 | 24.13400 | 113.96433 | 34032 ft | 483 kts | 218° |
| 2026-04-23 07:56 | 24.07639 | 113.92429 | 34031 ft | 484 kts | 218° |
| 2026-04-23 07:57 | 24.01963 | 113.88483 | 34029 ft | 484 kts | 218° |
| 2026-04-23 07:57 | 23.96260 | 113.84525 | 34018 ft | 482 kts | 218° |
| 2026-04-23 07:57 | 23.93461 | 113.82588 | 34008 ft | 471 kts | 218° |
| 2026-04-23 07:58 | 23.90677 | 113.80661 | 33980 ft | 462 kts | 218° |
| 2026-04-23 07:58 | 23.87987 | 113.78802 | 33525 ft | 455 kts | 218° |
| 2026-04-23 07:58 | 23.85314 | 113.76949 | 32440 ft | 460 kts | 218° |
| 2026-04-23 07:58 | 23.82612 | 113.75075 | 31425 ft | 464 kts | 218° |
| 2026-04-23 07:59 | 23.79863 | 113.73174 | 30563 ft | 464 kts | 217° |
| 2026-04-23 07:59 | 23.77164 | 113.71310 | 30070 ft | 457 kts | 218° |
| 2026-04-23 07:59 | 23.74514 | 113.69482 | 29630 ft | 449 kts | 218° |
| 2026-04-23 07:59 | 23.71871 | 113.67659 | 29130 ft | 442 kts | 218° |
| 2026-04-23 08:00 | 23.69307 | 113.65891 | 28626 ft | 437 kts | 217° |
| 2026-04-23 08:00 | 23.66764 | 113.64136 | 28112 ft | 431 kts | 218° |
| 2026-04-23 08:00 | 23.64228 | 113.62388 | 27599 ft | 426 kts | 217° |
| 2026-04-23 08:00 | 23.61709 | 113.60681 | 27081 ft | 437 kts | 214° |
| 2026-04-23 08:01 | 23.58916 | 113.59237 | 26529 ft | 448 kts | 206° |
| 2026-04-23 08:01 | 23.55889 | 113.58261 | 25960 ft | 452 kts | 197° |
| 2026-04-23 08:01 | 23.52923 | 113.57746 | 25425 ft | 451 kts | 193° |
| 2026-04-23 08:01 | 23.49829 | 113.57302 | 24851 ft | 447 kts | 193° |
| 2026-04-23 08:02 | 23.46779 | 113.56867 | 24276 ft | 443 kts | 193° |
| 2026-04-23 08:02 | 23.43724 | 113.56428 | 23701 ft | 439 kts | 193° |
| 2026-04-23 08:02 | 23.40698 | 113.55991 | 23136 ft | 435 kts | 193° |
| 2026-04-23 08:02 | 23.37713 | 113.55559 | 22571 ft | 431 kts | 193° |
| 2026-04-23 08:03 | 23.34765 | 113.55130 | 22014 ft | 428 kts | 193° |
| 2026-04-23 08:03 | 23.31795 | 113.54697 | 21440 ft | 425 kts | 193° |
| 2026-04-23 08:03 | 23.28894 | 113.54274 | 20875 ft | 422 kts | 193° |
| 2026-04-23 08:03 | 23.25984 | 113.53849 | 20293 ft | 420 kts | 192° |
| 2026-04-23 08:04 | 23.23079 | 113.53425 | 19705 ft | 417 kts | 192° |
| 2026-04-23 08:04 | 23.20238 | 113.53011 | 19134 ft | 415 kts | 192° |
| 2026-04-23 08:04 | 23.17360 | 113.52590 | 18544 ft | 413 kts | 192° |
| 2026-04-23 08:04 | 23.14535 | 113.52177 | 17960 ft | 410 kts | 192° |
| 2026-04-23 08:05 | 23.11710 | 113.51765 | 17384 ft | 408 kts | 192° |
| 2026-04-23 08:05 | 23.08904 | 113.51356 | 16807 ft | 405 kts | 192° |
| 2026-04-23 08:05 | 23.06137 | 113.50952 | 16226 ft | 403 kts | 192° |
| 2026-04-23 08:05 | 23.03345 | 113.50545 | 15640 ft | 400 kts | 192° |
| 2026-04-23 08:06 | 23.00613 | 113.50147 | 15071 ft | 398 kts | 193° |
| 2026-04-23 08:06 | 22.97846 | 113.49744 | 14460 ft | 396 kts | 192° |
| 2026-04-23 08:06 | 22.95126 | 113.49348 | 13866 ft | 393 kts | 192° |
| 2026-04-23 08:06 | 22.92376 | 113.48948 | 13270 ft | 391 kts | 192° |
| 2026-04-23 08:07 | 22.89681 | 113.48556 | 12676 ft | 388 kts | 192° |
| 2026-04-23 08:07 | 22.87032 | 113.48183 | 12108 ft | 386 kts | 190° |
| 2026-04-23 08:07 | 22.84335 | 113.47977 | 11563 ft | 384 kts | 188° |
| 2026-04-23 08:07 | 22.81691 | 113.47803 | 11001 ft | 381 kts | 188° |
| 2026-04-23 08:08 | 22.79057 | 113.47624 | 10696 ft | 370 kts | 188° |
| 2026-04-23 08:08 | 22.76523 | 113.47451 | 10588 ft | 355 kts | 188° |
| 2026-04-23 08:08 | 22.74102 | 113.47282 | 10462 ft | 341 kts | 189° |
| 2026-04-23 08:08 | 22.71841 | 113.47121 | 10332 ft | 329 kts | 189° |
| 2026-04-23 08:09 | 22.69591 | 113.46958 | 10199 ft | 317 kts | 189° |
| 2026-04-23 08:09 | 22.67422 | 113.46799 | 10054 ft | 306 kts | 189° |
| 2026-04-23 08:09 | 22.65291 | 113.46641 | 9932 ft | 295 kts | 189° |
| 2026-04-23 08:09 | 22.63268 | 113.46491 | 9695 ft | 290 kts | 189° |
| 2026-04-23 08:10 | 22.61292 | 113.46344 | 9312 ft | 291 kts | 188° |
| 2026-04-23 08:10 | 22.59405 | 113.46599 | 8947 ft | 300 kts | 165° |
| 2026-04-23 08:10 | 22.56419 | 113.49541 | 8264 ft | 313 kts | 123° |
| 2026-04-23 08:11 | 22.55416 | 113.51547 | 7924 ft | 312 kts | 121° |
| 2026-04-23 08:11 | 22.54484 | 113.53479 | 7757 ft | 305 kts | 121° |
| 2026-04-23 08:11 | 22.53497 | 113.55489 | 7264 ft | 310 kts | 121° |
| 2026-04-23 08:11 | 22.52495 | 113.57505 | 7137 ft | 300 kts | 122° |
| 2026-04-23 08:12 | 22.51494 | 113.59487 | 6618 ft | 307 kts | 122° |
| 2026-04-23 08:12 | 22.50526 | 113.61404 | 6509 ft | 296 kts | 122° |
| 2026-04-23 08:12 | 22.49612 | 113.63215 | 6475 ft | 284 kts | 122° |
| 2026-04-23 08:12 | 22.48734 | 113.65005 | 6254 ft | 281 kts | 117° |
| 2026-04-23 08:13 | 22.48046 | 113.66915 | 5974 ft | 281 kts | 112° |
| 2026-04-23 08:13 | 22.47403 | 113.68930 | 5657 ft | 280 kts | 111° |
| 2026-04-23 08:13 | 22.46766 | 113.70932 | 5234 ft | 279 kts | 111° |
| 2026-04-23 08:13 | 22.46186 | 113.72743 | 4869 ft | 277 kts | 111° |
| 2026-04-23 08:14 | 22.45589 | 113.74599 | 4508 ft | 275 kts | 111° |
| 2026-04-23 08:14 | 22.44957 | 113.76561 | 4144 ft | 272 kts | 110° |
| 2026-04-23 08:14 | 22.44637 | 113.78416 | 3858 ft | 267 kts | 87° |
| 2026-04-23 08:14 | 22.45070 | 113.80315 | 3798 ft | 250 kts | 67° |
| 2026-04-23 08:15 | 22.45739 | 113.81954 | 3678 ft | 239 kts | 63° |
| 2026-04-23 08:15 | 22.46377 | 113.83361 | 3334 ft | 238 kts | 62° |
| 2026-04-23 08:15 | 22.47052 | 113.84782 | 3053 ft | 233 kts | 58° |
| 2026-04-23 08:15 | 22.48125 | 113.85957 | 2988 ft | 210 kts | 24° |
| 2026-04-23 08:16 | 22.49476 | 113.86460 | 2998 ft | 201 kts | 4° |
| 2026-04-23 08:16 | 22.50825 | 113.86310 | 3015 ft | 193 kts | 341° |
| 2026-04-23 08:16 | 22.52059 | 113.85803 | 3003 ft | 191 kts | 331° |
| 2026-04-23 08:16 | 22.53250 | 113.85125 | 2779 ft | 188 kts | 329° |
| 2026-04-23 08:17 | 22.54387 | 113.84497 | 2447 ft | 177 kts | 331° |
| 2026-04-23 08:17 | 22.55428 | 113.83940 | 2120 ft | 159 kts | 332° |
| 2026-04-23 08:17 | 22.56390 | 113.83418 | 1781 ft | 150 kts | 332° |
| 2026-04-23 08:17 | 22.57314 | 113.82913 | 1430 ft | 147 kts | 332° |
| 2026-04-23 08:18 | 22.58219 | 113.82416 | 1050 ft | 148 kts | 333° |
| 2026-04-23 08:18 | 22.59150 | 113.81946 | 728 ft | 142 kts | 332° |
| 2026-04-23 08:18 | 22.59996 | 113.81428 | 457 ft | 140 kts | 331° |
| 2026-04-23 08:18 | 22.60880 | 113.80943 | 390 ft | 142 kts | 332° |
| 2026-04-23 08:19 | 22.61775 | 113.80457 | 229 ft | 144 kts | 333° |
| 2026-04-23 08:19 | 22.62679 | 113.79995 | 52 ft | 136 kts | 331° |
| 2026-04-23 08:19 | 22.63430 | 113.79584 | 27 ft | 104 kts | 334° |
| 2026-04-23 08:19 | 22.63971 | 113.79287 | 27 ft | 73 kts | 333° |
| 2026-04-23 08:20 | 22.64360 | 113.79082 | 27 ft | 44 kts | 338° |
| 2026-04-23 08:20 | 22.64507 | 113.79057 | 27 ft | 8 kts | 13° |
| 2026-04-23 08:20 | 22.64536 | 113.79064 | 27 ft | 2 kts | 7° |
| 2026-04-23 08:20 | 22.64541 | 113.79065 | 27 ft | 0 kts | 7° |
| 2026-04-23 08:21 | 22.64625 | 113.79076 | 27 ft | 15 kts | 8° |
| 2026-04-23 08:21 | 22.64674 | 113.79147 | 27 ft | 11 kts | 66° |
| 2026-04-23 08:21 | 22.64691 | 113.79203 | 27 ft | 7 kts | 96° |
| 2026-04-23 08:21 | 22.64665 | 113.79236 | 27 ft | 5 kts | 146° |
| 2026-04-23 08:22 | 22.64624 | 113.79260 | 27 ft | 7 kts | 152° |
| 2026-04-23 08:22 | 22.64566 | 113.79293 | 27 ft | 10 kts | 152° |
| 2026-04-23 08:22 | 22.64484 | 113.79341 | 27 ft | 18 kts | 152° |
| 2026-04-23 08:22 | 22.64305 | 113.79443 | 27 ft | 39 kts | 152° |
| 2026-04-23 08:23 | 22.64001 | 113.79613 | 27 ft | 56 kts | 153° |
| 2026-04-23 08:23 | 22.63742 | 113.79746 | 27 ft | 19 kts | 155° |
| 2026-04-23 08:23 | 22.63627 | 113.79806 | 27 ft | 17 kts | 153° |
| 2026-04-23 08:23 | 22.63547 | 113.79855 | 27 ft | 8 kts | 121° |
| 2026-04-23 08:24 | 22.63554 | 113.79903 | 27 ft | 6 kts | 62° |
| 2026-04-23 08:24 | 22.63589 | 113.79977 | 27 ft | 15 kts | 65° |
| 2026-04-23 08:24 | 22.63589 | 113.80024 | 27 ft | 6 kts | 139° |
| 2026-04-23 08:24 | 22.63548 | 113.80046 | 27 ft | 6 kts | 155° |
| 2026-04-23 08:25 | 22.63522 | 113.80059 | 27 ft | 1 kts | 155° |
| 2026-04-23 08:25 | 22.63517 | 113.80062 | 27 ft | 0 kts | 155° |
| 2026-04-23 08:34 | 22.63518 | 113.80061 | 27 ft | 1 kts | 155° |
| 2026-04-23 08:34 | 22.63543 | 113.80052 | 27 ft | 2 kts | 156° |
| 2026-04-23 08:34 | 22.63570 | 113.80037 | 27 ft | 2 kts | 153° |
| 2026-04-23 08:35 | 22.63601 | 113.80033 | 27 ft | 2 kts | 200° |
| 2026-04-23 08:35 | 22.63624 | 113.80052 | 27 ft | 1 kts | 240° |
| 2026-04-23 08:35 | 22.63627 | 113.80057 | 27 ft | 0 kts | 244° |
| 2026-04-23 08:38 | 22.63624 | 113.80050 | 27 ft | 4 kts | 244° |